Time;durP1;ratioP1;P1;durP2;ratioP2;P2;SDS_P1;SDS_P2;PMS_P1;PMS_P2;Temp;Humidity;BMP_temperature;BMP_pressure;BME280_temperature;BME280_humidity;BME280_pressure;Samples;Min_cycle;Max_cycle;Signal;HPM_P1;HPM_P2
2024/01/26 00:00:08;;;;;;;;;;;;;;;8.82;100.00;102244.63;5113326;28;19992;-71
2024/01/26 00:02:34;;;;;;;;;;;;;;;8.84;100.00;102233.28;5109663;28;20211;-71
2024/01/26 00:04:59;;;;;;;;;;;;;;;8.86;100.00;102238.50;5113272;28;19977;-71
2024/01/26 00:07:24;;;;;;;;;;;;;;;8.88;100.00;102241.06;5107026;28;19931;-71
2024/01/26 00:09:49;;;;;;;;;;;;;;;8.88;100.00;102223.69;5112253;28;20010;-71
2024/01/26 00:12:15;;;;;;;;;;;;;;;8.87;100.00;102221.94;5107747;28;19920;-71
2024/01/26 00:14:40;;;;;;;;;;;;;;;8.86;100.00;102215.00;5107890;28;19915;-71
2024/01/26 00:17:05;;;;;;;;;;;;;;;8.84;100.00;102211.50;5110377;28;19919;-71
2024/01/26 00:19:30;;;;;;;;;;;;;;;8.87;100.00;102211.47;5110627;28;19922;-71
2024/01/26 00:21:56;;;;;;;;;;;;;;;8.87;100.00;102216.72;5107950;28;19955;-71
2024/01/26 00:24:21;;;;;;;;;;;;;;;8.84;100.00;102215.00;5112099;28;20175;-71
2024/01/26 00:26:47;;;;;;;;;;;;;;;8.87;100.00;102213.25;5108924;28;20112;-71
2024/01/26 00:29:12;;;;;;;;;;;;;;;8.88;100.00;102215.84;5104837;28;20127;-71
2024/01/26 00:31:37;;;;;;;;;;;;;;;8.89;100.00;102201.88;5108091;28;19920;-71
2024/01/26 00:34:02;;;;;;;;;;;;;;;8.90;100.00;102194.94;5106307;28;19954;-71
2024/01/26 00:36:28;;;;;;;;;;;;;;;8.90;100.00;102203.63;5107900;28;19920;-71
2024/01/26 00:38:53;;;;;;;;;;;;;;;8.89;100.00;102201.88;5113978;28;20379;-72
2024/01/26 00:41:18;;;;;;;;;;;;;;;8.85;100.00;102202.81;5115249;28;20238;-72
2024/01/26 00:43:43;;;;;;;;;;;;;;;8.85;100.00;102202.81;5115707;28;19961;-72
2024/01/26 00:46:09;;;;;;;;;;;;;;;8.87;100.00;102194.94;5114909;28;20114;-71
2024/01/26 00:48:34;;;;;;;;;;;;;;;8.90;100.00;102193.16;5098088;28;19961;-71
2024/01/26 00:50:59;;;;;;;;;;;;;;;8.88;100.00;102191.44;5118674;28;19923;-72
2024/01/26 00:53:24;;;;;;;;;;;;;;;8.88;100.00;102188.81;5118537;28;19908;-72
2024/01/26 00:55:50;;;;;;;;;;;;;;;8.89;100.00;102186.19;5112608;28;20194;-72
2024/01/26 00:58:15;;;;;;;;;;;;;;;8.91;100.00;102186.19;5113278;28;20215;-72
2024/01/26 01:00:40;;;;;;;;;;;;;;;8.90;100.00;102184.47;5106850;28;20215;-72
2024/01/26 01:03:05;;;;;;;;;;;;;;;8.87;100.00;102172.28;5117069;28;19922;-72
2024/01/26 01:05:31;;;;;;;;;;;;;;;8.91;100.00;102158.31;5117601;28;19927;-72
2024/01/26 01:07:56;;;;;;;;;;;;;;;8.91;100.00;102163.53;5114265;28;19931;-72
2024/01/26 01:10:21;;;;;;;;;;;;;;;8.95;100.00;102166.97;5118598;28;19958;-71
2024/01/26 01:12:46;;;;;;;;;;;;;;;8.93;100.00;102159.19;5118718;28;19923;-71
2024/01/26 01:15:12;;;;;;;;;;;;;;;8.96;100.00;102147.81;5118431;28;20222;-71
2024/01/26 01:17:47;;;;;;;;;;;;;;;8.96;100.00;102156.50;5118395;28;20234;-71
2024/01/26 01:20:13;;;;;;;;;;;;;;;8.99;100.00;102139.94;5117037;28;19919;-71
2024/01/26 01:22:39;;;;;;;;;;;;;;;9.02;100.00;102139.88;5118664;28;19916;-71
2024/01/26 01:25:06;;;;;;;;;;;;;;;9.01;100.00;102131.19;5117179;28;19916;-71
2024/01/26 01:27:32;;;;;;;;;;;;;;;9.02;100.00;102134.66;5118088;28;19946;-71
2024/01/26 01:29:57;;;;;;;;;;;;;;;9.01;100.00;102141.63;5117113;28;20262;-71
2024/01/26 01:32:22;;;;;;;;;;;;;;;9.03;100.00;102125.94;5113928;28;19920;-71
2024/01/26 01:34:47;;;;;;;;;;;;;;;9.03;100.00;102129.41;5117606;28;20080;-71
2024/01/26 01:37:12;;;;;;;;;;;;;;;9.03;100.00;102131.16;5117222;28;20154;-71
2024/01/26 01:39:38;;;;;;;;;;;;;;;9.02;100.00;102146.00;5117038;28;20224;-71
2024/01/26 01:42:03;;;;;;;;;;;;;;;9.02;100.00;102143.38;5117346;28;20000;-71
2024/01/26 01:44:29;;;;;;;;;;;;;;;9.00;100.00;102145.16;5117346;28;19922;-71
2024/01/26 01:46:54;;;;;;;;;;;;;;;8.99;100.00;102137.31;5097492;28;19926;-71
2024/01/26 01:49:19;;;;;;;;;;;;;;;9.02;100.00;102134.66;5108849;28;19965;-71
2024/01/26 01:51:46;;;;;;;;;;;;;;;9.01;100.00;102127.72;5111920;28;19923;-71
2024/01/26 01:54:11;;;;;;;;;;;;;;;9.01;100.00;102125.09;5116985;28;19916;-71
2024/01/26 01:56:38;;;;;;;;;;;;;;;9.00;100.00;102113.78;5118319;28;19920;-71
2024/01/26 01:59:04;;;;;;;;;;;;;;;9.01;100.00;102104.19;5105116;28;19916;-71
2024/01/26 02:01:29;;;;;;;;;;;;;;;9.02;100.00;102087.63;5117617;28;19953;-71
2024/01/26 02:03:55;;;;;;;;;;;;;;;9.02;100.00;102085.00;5116425;28;20336;-71
2024/01/26 02:06:20;;;;;;;;;;;;;;;9.01;100.00;102084.16;5099812;28;19919;-71
2024/01/26 02:08:45;;;;;;;;;;;;;;;8.97;100.00;102079.00;5117440;28;19924;-71
2024/01/26 02:11:11;;;;;;;;;;;;;;;9.00;100.00;102077.22;5116415;28;19980;-71
2024/01/26 02:13:36;;;;;;;;;;;;;;;8.97;100.00;102074.63;5117366;28;19912;-71
2024/01/26 02:16:01;;;;;;;;;;;;;;;8.99;100.00;102083.31;5116536;28;19911;-71
2024/01/26 02:18:26;;;;;;;;;;;;;;;8.99;100.00;102062.41;5117038;28;19987;-71
2024/01/26 02:20:52;;;;;;;;;;;;;;;8.99;100.00;102051.94;5117132;28;19923;-71
2024/01/26 02:23:22;;;;;;;;;;;;;;;8.99;100.00;102049.34;5098523;28;19926;-71
2024/01/26 02:25:47;;;;;;;;;;;;;;;8.99;100.00;102043.25;5114928;28;19920;-71
2024/01/26 02:28:12;;;;;;;;;;;;;;;9.00;100.00;102044.97;5116381;28;19915;-71
2024/01/26 02:30:37;;;;;;;;;;;;;;;9.01;100.00;102036.25;5116439;28;19912;-71
2024/01/26 02:33:03;;;;;;;;;;;;;;;9.01;100.00;102042.34;5116928;28;19926;-71
2024/01/26 02:35:28;;;;;;;;;;;;;;;9.01;100.00;102060.63;5116677;28;19983;-71
2024/01/26 02:37:53;;;;;;;;;;;;;;;9.00;100.00;102056.31;5116379;28;20277;-71
2024/01/26 02:40:18;;;;;;;;;;;;;;;9.00;100.00;102058.91;5116683;28;19920;-71
2024/01/26 02:42:43;;;;;;;;;;;;;;;9.03;100.00;102045.78;5116678;28;19927;-71
2024/01/26 02:45:09;;;;;;;;;;;;;;;9.05;100.00;102027.47;5117021;28;19920;-71
2024/01/26 02:47:34;;;;;;;;;;;;;;;9.08;100.00;102035.28;5116970;28;20066;-71
2024/01/26 02:49:59;;;;;;;;;;;;;;;9.08;100.00;102013.47;5116239;28;19920;-71
2024/01/26 02:52:24;;;;;;;;;;;;;;;9.09;100.00;102020.44;5116761;28;20149;-71
2024/01/26 02:54:51;;;;;;;;;;;;;;;9.13;100.00;102017.78;5116460;28;20356;-71
2024/01/26 02:57:17;;;;;;;;;;;;;;;9.11;100.00;102019.53;5116486;28;19993;-71
2024/01/26 02:59:42;;;;;;;;;;;;;;;9.14;100.00;102016.88;5116718;28;19919;-71
2024/01/26 03:02:07;;;;;;;;;;;;;;;9.15;100.00;102002.06;5097604;28;19920;-71
2024/01/26 03:04:32;;;;;;;;;;;;;;;9.15;100.00;102002.06;5116647;28;19919;-71
2024/01/26 03:06:58;;;;;;;;;;;;;;;9.15;100.00;101989.88;5115806;28;19931;-71
2024/01/26 03:09:23;;;;;;;;;;;;;;;9.18;100.00;101986.31;5115829;28;19983;-71
2024/01/26 03:11:48;;;;;;;;;;;;;;;9.16;100.00;101982.88;5115710;28;19919;-72
2024/01/26 03:14:15;;;;;;;;;;;;;;;9.17;100.00;101969.78;5115472;28;19912;-72
2024/01/26 03:16:40;;;;;;;;;;;;;;;9.21;100.00;101986.28;5116242;28;19983;-72
2024/01/26 03:19:07;;;;;;;;;;;;;;;9.25;100.00;101997.56;5115710;28;19920;-72
2024/01/26 03:21:32;;;;;;;;;;;;;;;9.25;100.00;101990.56;5116958;28;20211;-71
2024/01/26 03:23:57;;;;;;;;;;;;;;;9.24;100.00;101983.63;5115577;28;19931;-71
2024/01/26 03:26:23;;;;;;;;;;;;;;;9.23;100.00;101971.44;5116214;28;19912;-71
2024/01/26 03:28:49;;;;;;;;;;;;;;;9.25;100.00;101966.19;5115856;28;19919;-71
2024/01/26 03:31:14;;;;;;;;;;;;;;;9.25;100.00;101974.88;5112398;28;19951;-71
2024/01/26 03:33:39;;;;;;;;;;;;;;;9.22;100.00;101960.13;5115976;28;20203;-71
2024/01/26 03:36:05;;;;;;;;;;;;;;;9.27;100.00;101956.56;5114922;28;19924;-71
2024/01/26 03:38:30;;;;;;;;;;;;;;;9.25;100.00;101961.81;5115659;28;19927;-71
2024/01/26 03:40:55;;;;;;;;;;;;;;;9.26;100.00;101955.72;5115373;28;19920;-71
2024/01/26 03:43:21;;;;;;;;;;;;;;;9.26;100.00;101955.72;5116028;28;19926;-71
2024/01/26 03:45:46;;;;;;;;;;;;;;;9.27;100.00;101957.41;5115985;28;19927;-72
2024/01/26 03:48:11;;;;;;;;;;;;;;;9.26;100.00;101952.22;5116994;28;20211;-71
2024/01/26 03:50:37;;;;;;;;;;;;;;;9.26;100.00;101913.88;5116397;28;19947;-71
2024/01/26 03:53:02;;;;;;;;;;;;;;;9.28;100.00;101929.50;5116799;28;19919;-71
2024/01/26 03:55:28;;;;;;;;;;;;;;;9.33;100.00;101933.81;5117266;28;19923;-72
2024/01/26 03:57:53;;;;;;;;;;;;;;;9.33;100.00;101931.19;5115304;28;19919;-72
2024/01/26 04:00:18;;;;;;;;;;;;;;;9.36;100.00;101923.25;5115277;28;20165;-72
2024/01/26 04:02:44;;;;;;;;;;;;;;;9.34;100.00;101909.38;5115798;28;20406;-72
2024/01/26 04:05:09;;;;;;;;;;;;;;;9.35;100.00;101907.59;5103282;28;19920;-72
2024/01/26 04:07:35;;;;;;;;;;;;;;;9.35;100.00;101908.50;5107905;28;19998;-72
2024/01/26 04:10:00;;;;;;;;;;;;;;;9.38;100.00;101895.34;5115008;28;19920;-72
2024/01/26 04:12:25;;;;;;;;;;;;;;;9.35;100.00;101892.81;5115853;28;19923;-72
2024/01/26 04:14:51;;;;;;;;;;;;;;;9.34;100.00;101880.59;5115268;28;19990;-72
2024/01/26 04:17:16;;;;;;;;;;;;;;;9.34;100.00;101874.53;5116414;28;20210;-72
2024/01/26 04:19:41;;;;;;;;;;;;;;;9.34;100.00;101879.75;5116254;28;20226;-72
2024/01/26 04:22:06;;;;;;;;;;;;;;;9.32;100.00;101874.56;5115119;28;19919;-72
2024/01/26 04:24:33;;;;;;;;;;;;;;;9.32;100.00;101879.78;5119303;28;20234;-72
2024/01/26 04:27:00;;;;;;;;;;;;;;;9.35;100.00;101882.34;5119378;28;19920;-72
2024/01/26 04:29:25;;;;;;;;;;;;;;;9.38;100.00;101871.81;5120461;28;19919;-72
2024/01/26 04:31:51;;;;;;;;;;;;;;;9.38;100.00;101858.72;5120256;28;20243;-72
2024/01/26 04:34:16;;;;;;;;;;;;;;;9.38;100.00;101850.03;5120396;28;19977;-72
2024/01/26 04:36:45;;;;;;;;;;;;;;;9.37;100.00;101854.41;5119547;28;19923;-72
2024/01/26 04:39:11;;;;;;;;;;;;;;;9.38;100.00;101853.50;5118763;28;19986;-72
2024/01/26 04:41:37;;;;;;;;;;;;;;;9.37;100.00;101843.09;5120475;28;19979;-72
2024/01/26 04:44:02;;;;;;;;;;;;;;;9.39;100.00;101857.00;5119645;28;19926;-72
2024/01/26 04:46:28;;;;;;;;;;;;;;;9.36;100.00;101855.28;5119566;28;20164;-72
2024/01/26 04:48:53;;;;;;;;;;;;;;;9.36;100.00;101844.84;5119711;28;20228;-72
2024/01/26 04:51:18;;;;;;;;;;;;;;;9.36;100.00;101844.84;5119882;28;19951;-72
2024/01/26 04:53:43;;;;;;;;;;;;;;;9.37;100.00;101832.66;5119270;28;19927;-72
2024/01/26 04:56:11;;;;;;;;;;;;;;;9.36;100.00;101823.06;5119457;28;20127;-72
2024/01/26 04:58:37;;;;;;;;;;;;;;;9.39;100.00;101828.25;5119204;28;19919;-71
2024/01/26 05:01:02;;;;;;;;;;;;;;;9.37;100.00;101830.03;5119273;28;20139;-71
2024/01/26 05:03:28;;;;;;;;;;;;;;;9.36;100.00;101821.31;5119445;28;19927;-71
2024/01/26 05:05:53;;;;;;;;;;;;;;;9.36;100.00;101815.22;5117988;28;20192;-71
2024/01/26 05:08:18;;;;;;;;;;;;;;;9.37;100.00;101806.50;5119101;28;19931;-72
2024/01/26 05:10:44;;;;;;;;;;;;;;;9.36;100.00;101802.16;5118032;28;19969;-72
2024/01/26 05:13:10;;;;;;;;;;;;;;;9.35;100.00;101798.69;5117389;28;19923;-72
2024/01/26 05:15:35;;;;;;;;;;;;;;;9.36;100.00;101789.09;5118845;28;19964;-72
2024/01/26 05:18:00;;;;;;;;;;;;;;;9.36;100.00;101799.53;5118689;28;19991;-71
2024/01/26 05:20:25;;;;;;;;;;;;;;;9.38;100.00;101801.22;5118554;28;19983;-71
2024/01/26 05:22:51;;;;;;;;;;;;;;;9.39;100.00;101800.34;5119453;28;19944;-71
2024/01/26 05:25:16;;;;;;;;;;;;;;;9.38;100.00;101797.75;5119117;28;19964;-71
2024/01/26 05:27:41;;;;;;;;;;;;;;;9.38;100.00;101792.53;5118609;28;19919;-72
2024/01/26 05:30:07;;;;;;;;;;;;;;;9.39;100.00;101794.25;5119325;28;19916;-72
2024/01/26 05:32:32;;;;;;;;;;;;;;;9.37;100.00;101788.19;5119321;28;19911;-72
2024/01/26 05:34:57;;;;;;;;;;;;;;;9.37;100.00;101778.59;5118604;28;20005;-72
2024/01/26 05:37:23;;;;;;;;;;;;;;;9.35;100.00;101785.63;5119661;28;19916;-72
2024/01/26 05:39:48;;;;;;;;;;;;;;;9.34;100.00;101786.50;5118980;28;19962;-72
2024/01/26 05:42:13;;;;;;;;;;;;;;;9.38;100.00;101793.38;5100206;28;20116;-72
2024/01/26 05:44:38;;;;;;;;;;;;;;;9.40;100.00;101785.50;5118956;28;19920;-72
2024/01/26 05:47:04;;;;;;;;;;;;;;;9.37;100.00;101790.81;5118919;28;19931;-72
2024/01/26 05:49:29;;;;;;;;;;;;;;;9.38;100.00;101777.69;5119203;28;19962;-72
2024/01/26 05:51:54;;;;;;;;;;;;;;;9.43;100.00;101763.69;5118624;28;19919;-72
2024/01/26 05:54:19;;;;;;;;;;;;;;;9.38;100.00;101769.00;5119438;28;19923;-72
2024/01/26 05:56:45;;;;;;;;;;;;;;;9.37;100.00;101762.06;5118250;28;20082;-72
2024/01/26 05:59:10;;;;;;;;;;;;;;;9.38;100.00;101763.75;5118521;28;19926;-72
2024/01/26 06:01:36;;;;;;;;;;;;;;;9.36;100.00;101774.25;5118937;28;19943;-72
2024/01/26 06:04:02;;;;;;;;;;;;;;;9.38;100.00;101776.84;5118589;28;19950;-72
2024/01/26 06:06:27;;;;;;;;;;;;;;;9.36;100.00;101783.84;5117676;28;20207;-72
2024/01/26 06:08:52;;;;;;;;;;;;;;;9.35;100.00;101762.09;5113555;28;19931;-72
2024/01/26 06:11:18;;;;;;;;;;;;;;;9.39;100.00;101774.19;5118205;28;19950;-72
2024/01/26 06:13:43;;;;;;;;;;;;;;;9.36;100.00;101768.16;5118330;28;19920;-72
2024/01/26 06:16:13;;;;;;;;;;;;;;;9.37;100.00;101767.28;5117555;28;19960;-72
2024/01/26 06:18:39;;;;;;;;;;;;;;;9.39;100.00;101766.34;5115812;28;19918;-72
2024/01/26 06:21:04;;;;;;;;;;;;;;;9.39;100.00;101765.50;5118331;28;19947;-72
2024/01/26 06:23:29;;;;;;;;;;;;;;;9.41;100.00;101764.56;5118131;28;19996;-72
2024/01/26 06:25:55;;;;;;;;;;;;;;;9.40;100.00;101749.78;5118016;28;19920;-72
2024/01/26 06:28:20;;;;;;;;;;;;;;;9.43;100.00;101768.91;5118699;28;19927;-72
2024/01/26 06:30:45;;;;;;;;;;;;;;;9.43;100.00;101764.53;5117686;28;19923;-72
2024/01/26 06:33:10;;;;;;;;;;;;;;;9.46;100.00;101760.97;5117507;28;20119;-72
2024/01/26 06:35:36;;;;;;;;;;;;;;;9.44;100.00;101758.44;5116364;28;20014;-72
2024/01/26 06:38:01;;;;;;;;;;;;;;;9.44;100.00;101768.88;5116547;28;20137;-72
2024/01/26 06:40:26;;;;;;;;;;;;;;;9.47;100.00;101767.94;5117466;28;19923;-72
2024/01/26 06:42:51;;;;;;;;;;;;;;;9.47;100.00;101768.78;5116849;28;19990;-72
2024/01/26 06:45:16;;;;;;;;;;;;;;;9.50;100.00;101779.19;5117887;28;19915;-73
2024/01/26 06:47:42;;;;;;;;;;;;;;;9.52;100.00;101766.09;5117454;28;19959;-72
2024/01/26 06:50:07;;;;;;;;;;;;;;;9.53;100.00;101771.31;5118573;28;19915;-72
2024/01/26 06:52:32;;;;;;;;;;;;;;;9.50;100.00;101763.50;5117078;28;20289;-72
2024/01/26 06:54:58;;;;;;;;;;;;;;;9.54;100.00;101769.53;5116634;28;20126;-72
2024/01/26 06:57:23;;;;;;;;;;;;;;;9.57;100.00;101779.94;5116947;28;19937;-72
2024/01/26 06:59:48;;;;;;;;;;;;;;;9.60;100.00;101779.84;5117390;28;19947;-72
2024/01/26 07:02:14;;;;;;;;;;;;;;;9.60;100.00;101772.88;5115986;28;19914;-72
2024/01/26 07:04:39;;;;;;;;;;;;;;;9.60;100.00;101787.69;5117454;28;19924;-72
2024/01/26 07:07:04;;;;;;;;;;;;;;;9.62;100.00;101788.53;5115994;28;20168;-72
2024/01/26 07:09:29;;;;;;;;;;;;;;;9.63;100.00;101805.09;5116004;28;19930;-72
2024/01/26 07:11:55;;;;;;;;;;;;;;;9.65;100.00;101785.00;5116471;28;19958;-72
2024/01/26 07:14:20;;;;;;;;;;;;;;;9.65;100.00;101790.22;5117047;28;19916;-72
2024/01/26 07:16:48;;;;;;;;;;;;;;;9.66;100.00;101798.03;5117495;28;20219;-72
2024/01/26 07:19:13;;;;;;;;;;;;;;;9.69;100.00;101803.19;5116911;28;19916;-72
2024/01/26 07:21:38;;;;;;;;;;;;;;;9.70;100.00;101788.38;5111398;28;20242;-72
2024/01/26 07:24:04;;;;;;;;;;;;;;;9.74;100.00;101796.13;5116215;28;19960;-72
2024/01/26 07:26:29;;;;;;;;;;;;;;;9.77;100.00;101782.97;5117176;28;20203;-72
2024/01/26 07:28:54;;;;;;;;;;;;;;;9.80;100.00;101792.50;5116432;28;19927;-72
2024/01/26 07:31:20;;;;;;;;;;;;;;;9.81;100.00;101791.63;5116448;28;19908;-72
2024/01/26 07:33:45;;;;;;;;;;;;;;;9.85;100.00;101795.03;5116703;28;20235;-72
2024/01/26 07:36:10;;;;;;;;;;;;;;;9.87;100.00;101807.16;5115925;28;20130;-72
2024/01/26 07:38:36;;;;;;;;;;;;;;;9.90;100.00;101801.88;5113834;28;19916;-72
2024/01/26 07:41:01;;;;;;;;;;;;;;;9.92;100.00;101809.69;5115202;28;19943;-73
2024/01/26 07:43:26;;;;;;;;;;;;;;;9.96;100.00;101817.41;5111492;28;19924;-72
2024/01/26 07:45:51;;;;;;;;;;;;;;;10.00;100.00;101828.69;5115368;28;20174;-72
2024/01/26 07:48:17;;;;;;;;;;;;;;;10.00;100.00;101815.59;5115780;28;19920;-72
2024/01/26 07:50:42;;;;;;;;;;;;;;;10.02;100.00;101833.88;5115836;28;20287;-72
2024/01/26 07:53:08;;;;;;;;;;;;;;;10.04;100.00;101808.53;5111357;28;19930;-72
2024/01/26 07:55:33;;;;;;;;;;;;;;;10.02;100.00;101826.03;5114851;28;19915;-72
2024/01/26 07:57:58;;;;;;;;;;;;;;;10.00;100.00;101818.22;5115449;28;20118;-72
2024/01/26 08:00:23;;;;;;;;;;;;;;;9.99;100.00;101833.06;5115925;28;20115;-72
2024/01/26 08:02:49;;;;;;;;;;;;;;;10.01;100.00;101830.41;5115270;28;19955;-72
2024/01/26 08:05:14;;;;;;;;;;;;;;;10.02;100.00;101860.91;5113511;28;20207;-72
2024/01/26 08:07:39;;;;;;;;;;;;;;;9.97;100.00;101845.31;5113544;28;19975;-72
2024/01/26 08:10:05;;;;;;;;;;;;;;;9.95;100.00;101854.09;5114708;28;19919;-72
2024/01/26 08:12:31;;;;;;;;;;;;;;;9.91;100.00;101855.06;5114440;28;19982;-72
2024/01/26 08:14:56;;;;;;;;;;;;;;;9.86;100.00;101849.06;5114958;28;19912;-72
2024/01/26 08:17:21;;;;;;;;;;;;;;;9.83;100.00;101864.84;5115839;28;19936;-72
2024/01/26 08:19:46;;;;;;;;;;;;;;;9.79;100.00;101854.44;5115753;28;19915;-72
2024/01/26 08:22:12;;;;;;;;;;;;;;;9.75;100.00;101865.84;5113054;28;19976;-72
2024/01/26 08:24:37;;;;;;;;;;;;;;;9.76;100.00;101903.34;5114456;28;20068;-72
2024/01/26 08:27:02;;;;;;;;;;;;;;;9.71;100.00;101879.88;5112264;28;19915;-72
2024/01/26 08:29:27;;;;;;;;;;;;;;;9.69;100.00;101884.28;5110647;28;20178;-72
2024/01/26 08:31:53;;;;;;;;;;;;;;;9.70;100.00;101903.47;5111071;28;19919;-72
2024/01/26 08:34:19;;;;;;;;;;;;;;;9.67;100.00;101914.84;5111179;28;19951;-73
2024/01/26 08:36:44;;;;;;;;;;;;;;;9.64;100.00;101919.28;5112895;28;19947;-72
2024/01/26 08:39:11;;;;;;;;;;;;;;;9.62;100.00;101969.00;5113838;28;20324;-72
2024/01/26 08:41:37;;;;;;;;;;;;;;;9.51;100.00;101976.19;5096680;28;19919;-73
2024/01/26 08:44:03;;;;;;;;;;;;;;;9.45;100.00;101982.38;5114718;28;19915;-72
2024/01/26 08:46:28;;;;;;;;;;;;;;;9.41;100.00;101991.19;5115842;28;19907;-72
2024/01/26 08:48:54;;;;;;;;;;;;;;;9.35;100.00;101989.53;5114695;28;20221;-72
2024/01/26 08:51:19;;;;;;;;;;;;;;;9.33;100.00;101983.47;5115311;28;19927;-72
2024/01/26 08:53:44;;;;;;;;;;;;;;;9.30;100.00;102001.81;5115667;28;19950;-73
2024/01/26 08:56:09;;;;;;;;;;;;;;;9.23;100.00;102011.50;5114737;28;19937;-73
2024/01/26 08:58:36;;;;;;;;;;;;;;;9.28;100.00;102002.72;5115567;28;19962;-72
2024/01/26 09:01:01;;;;;;;;;;;;;;;9.18;100.00;102026.38;5113334;28;19922;-72
2024/01/26 09:03:29;;;;;;;;;;;;;;;9.16;100.00;102016.84;5110713;28;20081;-72
2024/01/26 09:05:54;;;;;;;;;;;;;;;9.11;100.00;102024.75;5113120;28;19919;-72
2024/01/26 09:08:19;;;;;;;;;;;;;;;9.13;100.00;102025.63;5113319;28;19991;-72
2024/01/26 09:10:45;;;;;;;;;;;;;;;9.11;100.00;102016.06;5116811;28;19923;-72
2024/01/26 09:13:10;;;;;;;;;;;;;;;9.00;100.00;102024.06;5116960;28;19922;-72
2024/01/26 09:15:35;;;;;;;;;;;;;;;8.96;100.00;102020.63;5118860;28;19943;-72
2024/01/26 09:18:01;;;;;;;;;;;;;;;8.93;100.00;102052.06;5117749;28;19916;-72
2024/01/26 09:20:26;;;;;;;;;;;;;;;8.85;100.00;102046.06;5118096;28;19923;-72
2024/01/26 09:22:52;;;;;;;;;;;;;;;8.90;100.00;102066.91;5117849;28;19916;-72
2024/01/26 09:25:17;;;;;;;;;;;;;;;8.75;100.00;102084.50;5118364;28;19915;-72
2024/01/26 09:27:42;;;;;;;;;;;;;;;8.70;100.00;102104.59;5117902;28;20119;-72
2024/01/26 09:30:08;;;;;;;;;;;;;;;8.57;100.00;102119.56;5117495;28;20298;-72
2024/01/26 09:32:34;;;;;;;;;;;;;;;8.45;100.00;102117.94;5117982;28;19983;-72
2024/01/26 09:35:00;;;;;;;;;;;;;;;8.34;99.62;102138.03;5117271;28;19957;-72
2024/01/26 09:37:26;;;;;;;;;;;;;;;8.25;98.03;102156.41;5114361;28;20242;-72
2024/01/26 09:39:52;;;;;;;;;;;;;;;8.16;96.96;102154.75;5116961;28;19923;-72
2024/01/26 09:42:17;;;;;;;;;;;;;;;8.13;98.29;102149.59;5116977;28;19966;-72
2024/01/26 09:44:42;;;;;;;;;;;;;;;8.08;98.52;102164.41;5117086;28;19916;-72
2024/01/26 09:47:08;;;;;;;;;;;;;;;8.08;99.71;102193.13;5116279;28;20024;-72
2024/01/26 09:49:34;;;;;;;;;;;;;;;7.98;99.34;102202.75;5117081;28;19916;-72
2024/01/26 09:51:59;;;;;;;;;;;;;;;7.95;100.00;102204.50;5116623;28;20406;-72
2024/01/26 09:54:25;;;;;;;;;;;;;;;7.90;99.77;102214.13;5116978;28;20119;-72
2024/01/26 09:56:51;;;;;;;;;;;;;;;7.90;99.56;102235.00;5116613;28;19915;-72
2024/01/26 09:59:16;;;;;;;;;;;;;;;7.93;99.14;102230.63;5116946;28;19955;-72
2024/01/26 10:01:43;;;;;;;;;;;;;;;7.95;98.90;102231.47;5116558;28;20241;-72
2024/01/26 10:04:09;;;;;;;;;;;;;;;7.94;98.38;102241.94;5117064;28;20549;-72
2024/01/26 10:06:35;;;;;;;;;;;;;;;7.93;98.99;102248.00;5108077;28;20132;-72
2024/01/26 10:09:04;;;;;;;;;;;;;;;7.94;95.72;102268.88;5096255;28;20480;-74
2024/01/26 10:11:29;;;;;;;;;;;;;;;7.96;96.89;102281.91;5098005;28;19924;-72
2024/01/26 10:13:54;;;;;;;;;;;;;;;7.93;93.21;102271.47;5101833;28;20188;-72
2024/01/26 10:16:20;;;;;;;;;;;;;;;7.91;92.78;102312.38;5100008;28;19951;-72
2024/01/26 10:18:46;;;;;;;;;;;;;;;7.89;92.59;102291.50;5098740;28;19915;-72
2024/01/26 10:21:11;;;;;;;;;;;;;;;7.83;88.66;102295.03;5096107;28;19928;-72
2024/01/26 10:23:37;;;;;;;;;;;;;;;7.81;87.73;102333.28;5110316;28;19965;-72
2024/01/26 10:26:02;;;;;;;;;;;;;;;7.82;91.13;102322.00;5100738;28;19920;-72
2024/01/26 10:28:28;;;;;;;;;;;;;;;7.81;89.68;102335.91;5102734;28;19927;-72
2024/01/26 10:30:53;;;;;;;;;;;;;;;7.82;91.38;102328.94;5103171;28;19918;-72
2024/01/26 10:33:20;;;;;;;;;;;;;;;7.82;91.32;102342.88;5111823;28;19937;-72
2024/01/26 10:35:47;;;;;;;;;;;;;;;7.80;92.66;102362.84;5112310;28;20016;-72
2024/01/26 10:38:13;;;;;;;;;;;;;;;7.78;91.14;102345.47;5108673;28;19956;-72
2024/01/26 10:40:42;;;;;;;;;;;;;;;7.77;91.82;102370.69;5109416;28;19911;-72
2024/01/26 10:43:07;;;;;;;;;;;;;;;7.77;91.33;102390.72;5110649;28;19982;-72
2024/01/26 10:45:32;;;;;;;;;;;;;;;7.75;91.45;102390.72;5110528;28;19931;-72
2024/01/26 10:47:58;;;;;;;;;;;;;;;7.74;91.20;102391.56;5103796;28;20173;-72
2024/01/26 10:50:23;;;;;;;;;;;;;;;7.72;89.56;102403.75;5109456;28;19920;-72
2024/01/26 10:52:50;;;;;;;;;;;;;;;7.71;89.50;102395.94;5112384;28;20106;-72
2024/01/26 10:55:17;;;;;;;;;;;;;;;7.68;90.14;102394.22;5111448;28;19957;-72
2024/01/26 10:57:42;;;;;;;;;;;;;;;7.68;89.13;102402.03;5111966;28;19984;-72
2024/01/26 11:00:09;;;;;;;;;;;;;;;7.68;87.95;102425.50;5109707;28;19919;-72
2024/01/26 11:02:34;;;;;;;;;;;;;;;7.65;87.96;102420.28;5112034;28;19923;-72
2024/01/26 11:05:11;;;;;;;;;;;;;;;7.64;88.41;102440.28;5111643;28;19919;-72
2024/01/26 11:07:37;;;;;;;;;;;;;;;7.65;90.52;102433.34;5110790;28;19924;-72
2024/01/26 11:10:04;;;;;;;;;;;;;;;7.65;91.56;102447.22;5111413;28;19950;-72
2024/01/26 11:12:31;;;;;;;;;;;;;;;7.62;90.64;102452.47;5093913;28;19915;-72
2024/01/26 11:15:10;;;;;;;;;;;;;;;7.63;91.42;102459.41;5110268;28;19923;-72
2024/01/26 11:17:45;;;;;;;;;;;;;;;7.61;89.75;102468.13;5110012;28;19983;-72
2024/01/26 11:20:25;;;;;;;;;;;;;;;7.60;89.42;102501.13;5111171;28;19985;-72
2024/01/26 11:23:17;;;;;;;;;;;;;;;7.59;89.06;102482.91;5110755;28;20245;-72
2024/01/26 11:25:43;;;;;;;;;;;;;;;7.61;91.78;102484.63;5107547;28;19955;-72
2024/01/26 11:28:09;;;;;;;;;;;;;;;7.60;91.26;102492.44;5110527;28;19973;-72
2024/01/26 11:30:35;;;;;;;;;;;;;;;7.59;91.16;102514.19;5110829;28;20211;-72
2024/01/26 11:33:00;;;;;;;;;;;;;;;7.55;90.49;102517.66;5108994;28;19927;-72
2024/01/26 11:35:26;;;;;;;;;;;;;;;7.50;88.78;102526.34;5110628;28;19919;-72
2024/01/26 11:37:52;;;;;;;;;;;;;;;7.49;87.98;102523.75;5109097;28;20146;-72
2024/01/26 11:40:20;;;;;;;;;;;;;;;7.48;88.47;102535.06;5110819;28;19912;-72
2024/01/26 11:42:45;;;;;;;;;;;;;;;7.46;89.36;102537.66;5110918;28;19908;-72
2024/01/26 11:45:12;;;;;;;;;;;;;;;7.48;90.08;102541.13;5110013;28;20426;-72
2024/01/26 11:47:38;;;;;;;;;;;;;;;7.45;90.46;102548.94;5110645;28;19923;-72
2024/01/26 11:50:04;;;;;;;;;;;;;;;7.47;90.61;102538.53;5110689;28;19932;-72
2024/01/26 11:52:29;;;;;;;;;;;;;;;7.45;90.21;102556.75;5102826;28;20123;-72
2024/01/26 11:54:55;;;;;;;;;;;;;;;7.43;90.07;102558.50;5108109;28;20227;-72
2024/01/26 11:57:21;;;;;;;;;;;;;;;7.41;90.74;102583.72;5110693;28;19970;-72
2024/01/26 11:59:46;;;;;;;;;;;;;;;7.36;88.91;102587.19;5110450;28;20203;-72
2024/01/26 12:02:12;;;;;;;;;;;;;;;7.36;89.75;102584.56;5110326;28;19923;-72
2024/01/26 12:04:37;;;;;;;;;;;;;;;7.38;90.47;102588.03;5110487;28;19960;-72
2024/01/26 12:07:03;;;;;;;;;;;;;;;7.36;90.35;102590.66;5109860;28;19919;-72
2024/01/26 12:09:28;;;;;;;;;;;;;;;7.40;90.21;102609.75;5111006;28;19923;-72
2024/01/26 12:11:53;;;;;;;;;;;;;;;7.34;88.03;102609.78;5110100;28;19947;-72
2024/01/26 12:14:18;;;;;;;;;;;;;;;7.34;89.58;102626.28;5110576;28;20014;-72
2024/01/26 12:16:44;;;;;;;;;;;;;;;7.30;87.37;102646.25;5110611;28;19970;-72
2024/01/26 12:19:09;;;;;;;;;;;;;;;7.33;89.36;102631.47;5109964;28;19994;-72
2024/01/26 12:21:35;;;;;;;;;;;;;;;7.33;89.73;102636.69;5110992;28;19937;-72
2024/01/26 12:24:00;;;;;;;;;;;;;;;7.32;89.05;102635.84;5109780;28;19943;-72
2024/01/26 12:26:25;;;;;;;;;;;;;;;7.32;88.79;102653.22;5110374;28;19916;-72
2024/01/26 12:28:50;;;;;;;;;;;;;;;7.27;85.93;102666.22;5109868;28;19946;-72